Time;durP1;ratioP1;P1;durP2;ratioP2;P2;SDS_P1;SDS_P2;PMS_P1;PMS_P2;Temp;Humidity;BMP_temperature;BMP_pressure;BME280_temperature;BME280_humidity;BME280_pressure;Samples;Min_cycle;Max_cycle;Signal;HPM_P1;HPM_P2
2023/05/15 00:00:24;;;;;;;7.50;7.10;;;;;;;;;;4998953;28;20046;-23
2023/05/15 00:02:50;;;;;;;7.28;6.88;;;;;;;;;;4998583;28;20101;-23
2023/05/15 00:05:16;;;;;;;8.23;7.72;;;;;;;;;;4998346;28;20515;-23
2023/05/15 00:07:43;;;;;;;7.88;7.38;;;;;;;;;;4998816;28;20030;-24
2023/05/15 00:10:09;;;;;;;6.93;6.53;;;;;;;;;;4998485;28;20126;-24
2023/05/15 00:12:35;;;;;;;7.93;7.43;;;;;;;;;;4998293;28;20173;-25
2023/05/15 00:15:02;;;;;;;7.28;6.80;;;;;;;;;;4998407;28;20030;-26
2023/05/15 00:17:28;;;;;;;7.20;6.80;;;;;;;;;;4998275;28;20026;-26
2023/05/15 00:19:56;;;;;;;7.88;7.38;;;;;;;;;;4998350;28;20120;-22
2023/05/15 00:22:23;;;;;;;7.93;7.53;;;;;;;;;;4998422;28;20042;-25
2023/05/15 00:24:49;;;;;;;6.63;6.32;;;;;;;;;;4998191;28;20465;-22
2023/05/15 00:27:15;;;;;;;6.40;6.10;;;;;;;;;;4998172;28;20034;-23
2023/05/15 00:29:41;;;;;;;6.43;6.03;;;;;;;;;;4998413;28;20030;-20
2023/05/15 00:32:07;;;;;;;7.43;7.03;;;;;;;;;;4998253;28;20120;-25
2023/05/15 00:34:33;;;;;;;6.85;6.45;;;;;;;;;;4998087;28;20027;-22
2023/05/15 00:37:00;;;;;;;6.97;6.57;;;;;;;;;;4998013;28;20045;-23
2023/05/15 00:39:26;;;;;;;7.18;6.75;;;;;;;;;;4996582;28;20030;-26
2023/05/15 00:41:53;;;;;;;7.15;6.75;;;;;;;;;;4997801;28;20026;-23
2023/05/15 00:44:19;;;;;;;6.85;6.47;;;;;;;;;;4997860;28;20081;-27
2023/05/15 00:46:46;;;;;;;6.40;6.10;;;;;;;;;;4998073;28;20041;-26
2023/05/15 00:49:13;;;;;;;7.57;7.18;;;;;;;;;;4980661;28;20041;-31
2023/05/15 00:51:42;;;;;;;7.13;6.72;;;;;;;;;;4998009;28;20022;-24
2023/05/15 00:54:09;;;;;;;7.45;7.05;;;;;;;;;;4997879;28;20365;-20
2023/05/15 00:56:36;;;;;;;7.15;6.75;;;;;;;;;;4997640;28;20030;-24
2023/05/15 00:59:06;;;;;;;7.15;6.70;;;;;;;;;;4997510;28;20026;-26
2023/05/15 01:01:33;;;;;;;6.57;6.18;;;;;;;;;;4997520;28;20525;-22
2023/05/15 01:04:02;;;;;;;6.57;6.22;;;;;;;;;;4997429;28;20034;-25
2023/05/15 01:06:29;;;;;;;6.75;6.35;;;;;;;;;;4997437;28;20027;-21
2023/05/15 01:08:56;;;;;;;7.40;7.00;;;;;;;;;;4997407;28;20088;-25
2023/05/15 01:11:24;;;;;;;6.88;6.47;;;;;;;;;;4997395;28;20030;-21
2023/05/15 01:13:50;;;;;;;7.10;6.70;;;;;;;;;;4997523;28;20058;-24
2023/05/15 01:16:17;;;;;;;6.35;5.97;;;;;;;;;;4997547;28;20045;-23
2023/05/15 01:18:43;;;;;;;7.32;6.82;;;;;;;;;;4997089;28;20033;-25
2023/05/15 01:21:24;;;;;;;7.53;7.03;;;;;;;;;;4997189;28;20077;-26
2023/05/15 01:24:03;;;;;;;6.47;6.10;;;;;;;;;;4997142;28;20547;-22
2023/05/15 01:26:37;;;;;;;7.30;6.65;;;;;;;;;;4997695;28;20034;-24
2023/05/15 01:29:14;;;;;;;7.15;6.75;;;;;;;;;;4997377;28;20064;-26
2023/05/15 01:31:41;;;;;;;6.80;6.40;;;;;;;;;;4997047;28;20374;-23
2023/05/15 01:34:09;;;;;;;7.00;6.60;;;;;;;;;;4997131;28;20109;-29
2023/05/15 01:36:47;;;;;;;6.80;6.40;;;;;;;;;;4997193;28;20104;-24
2023/05/15 01:39:15;;;;;;;6.72;6.32;;;;;;;;;;4997085;28;20022;-31
2023/05/15 01:41:45;;;;;;;7.32;6.82;;;;;;;;;;4997108;28;20350;-22
2023/05/15 01:44:28;;;;;;;7.10;6.70;;;;;;;;;;4996916;28;20023;-24
2023/05/15 01:46:56;;;;;;;7.03;6.63;;;;;;;;;;4979600;28;20022;-24
2023/05/15 01:49:24;;;;;;;6.68;6.28;;;;;;;;;;4996940;28;20023;-25
2023/05/15 01:51:52;;;;;;;7.15;6.75;;;;;;;;;;4979453;28;20026;-22
2023/05/15 01:54:19;;;;;;;6.75;6.35;;;;;;;;;;4996808;28;20041;-22
2023/05/15 01:56:45;;;;;;;7.72;7.28;;;;;;;;;;4996519;28;20296;-23
2023/05/15 01:59:13;;;;;;;7.28;6.88;;;;;;;;;;4996578;28;20026;-23
2023/05/15 02:01:39;;;;;;;7.00;6.60;;;;;;;;;;4996717;28;20018;-22
2023/05/15 02:04:06;;;;;;;6.53;6.13;;;;;;;;;;4996113;28;20072;-29
2023/05/15 02:06:32;;;;;;;7.38;6.97;;;;;;;;;;4996332;28;20025;-29
2023/05/15 02:09:00;;;;;;;6.88;6.47;;;;;;;;;;4996513;28;20054;-22
2023/05/15 02:11:26;;;;;;;6.35;5.95;;;;;;;;;;4997016;28;20030;-23
2023/05/15 02:13:52;;;;;;;6.82;6.43;;;;;;;;;;4996122;28;20374;-23
2023/05/15 02:16:18;;;;;;;7.38;6.97;;;;;;;;;;4996170;28;20050;-22
2023/05/15 02:18:45;;;;;;;6.47;6.07;;;;;;;;;;4996041;28;20034;-24
2023/05/15 02:21:11;;;;;;;5.80;5.45;;;;;;;;;;4996302;28;20022;-23
2023/05/15 02:23:39;;;;;;;6.55;6.15;;;;;;;;;;4995978;28;20037;-33
2023/05/15 02:26:24;;;;;;;6.88;6.47;;;;;;;;;;4996178;28;20126;-25
2023/05/15 02:28:58;;;;;;;6.53;6.22;;;;;;;;;;4996131;28;20334;-22
2023/05/15 02:31:42;;;;;;;6.03;5.72;;;;;;;;;;4996169;28;20030;-24
2023/05/15 02:34:12;;;;;;;7.45;7.00;;;;;;;;;;4995783;28;20488;-21
2023/05/15 02:36:40;;;;;;;6.60;6.20;;;;;;;;;;4995807;28;20029;-22
2023/05/15 02:39:07;;;;;;;6.55;6.15;;;;;;;;;;4995907;28;20022;-22
2023/05/15 02:41:34;;;;;;;6.90;6.50;;;;;;;;;;4995998;28;20053;-21
2023/05/15 02:44:00;;;;;;;6.10;5.70;;;;;;;;;;4995592;28;20058;-25
2023/05/15 02:46:27;;;;;;;6.70;6.38;;;;;;;;;;4995634;28;20018;-25
2023/05/15 02:48:54;;;;;;;6.80;6.40;;;;;;;;;;4995864;28;20026;-20
2023/05/15 02:51:20;;;;;;;6.18;5.85;;;;;;;;;;4995845;28;20022;-24
2023/05/15 02:53:47;;;;;;;6.40;6.00;;;;;;;;;;4978473;28;20096;-21
2023/05/15 02:56:13;;;;;;;6.68;6.30;;;;;;;;;;4995493;28;20037;-21
2023/05/15 02:58:40;;;;;;;6.20;5.80;;;;;;;;;;4995630;28;20169;-27
2023/05/15 03:01:06;;;;;;;7.20;6.80;;;;;;;;;;4995635;28;20358;-26
2023/05/15 03:03:32;;;;;;;6.28;5.97;;;;;;;;;;4994454;28;20022;-25
2023/05/15 03:06:01;;;;;;;6.75;6.32;;;;;;;;;;4995621;28;20022;-25
2023/05/15 03:08:27;;;;;;;5.47;5.18;;;;;;;;;;4995252;28;20030;-26
2023/05/15 03:10:53;;;;;;;5.80;5.50;;;;;;;;;;4995303;28;20030;-24
2023/05/15 03:13:20;;;;;;;6.53;6.15;;;;;;;;;;4995694;28;20034;-22
2023/05/15 03:15:46;;;;;;;6.22;5.93;;;;;;;;;;4995287;28;20042;-23
2023/05/15 03:18:12;;;;;;;6.07;5.78;;;;;;;;;;4995417;28;20042;-26
2023/05/15 03:20:38;;;;;;;6.43;6.03;;;;;;;;;;4995475;28;20022;-25
2023/05/15 03:23:04;;;;;;;5.88;5.57;;;;;;;;;;4995418;28;20030;-24
2023/05/15 03:25:30;;;;;;;6.10;5.80;;;;;;;;;;4995452;28;20089;-23
2023/05/15 03:27:56;;;;;;;6.00;5.70;;;;;;;;;;4995147;28;20453;-29
2023/05/15 03:30:22;;;;;;;6.03;5.63;;;;;;;;;;4995145;28;20041;-21
2023/05/15 03:32:48;;;;;;;6.05;5.75;;;;;;;;;;4995058;28;20376;-26
2023/05/15 03:35:15;;;;;;;6.07;5.78;;;;;;;;;;4995106;28;20050;-24
2023/05/15 03:37:41;;;;;;;6.43;6.03;;;;;;;;;;4995259;28;20038;-22
2023/05/15 03:40:07;;;;;;;6.82;6.43;;;;;;;;;;4995260;28;20054;-23
2023/05/15 03:42:33;;;;;;;6.45;6.13;;;;;;;;;;4995157;28;20353;-19
2023/05/15 03:45:00;;;;;;;5.97;5.68;;;;;;;;;;4994969;28;20353;-23
2023/05/15 03:47:26;;;;;;;5.95;5.55;;;;;;;;;;4995211;28;20116;-29
2023/05/15 03:49:52;;;;;;;6.63;6.32;;;;;;;;;;4994885;28;20042;-28
2023/05/15 03:52:18;;;;;;;6.22;5.82;;;;;;;;;;4995044;28;20034;-24
2023/05/15 03:54:44;;;;;;;5.82;5.53;;;;;;;;;;4994864;28;20034;-23
2023/05/15 03:57:10;;;;;;;6.13;5.72;;;;;;;;;;4994723;28;20418;-28
2023/05/15 03:59:36;;;;;;;5.80;5.40;;;;;;;;;;4994656;28;20062;-26
2023/05/15 04:02:02;;;;;;;6.22;5.82;;;;;;;;;;4994666;28;20077;-22
2023/05/15 04:04:28;;;;;;;5.80;5.50;;;;;;;;;;4994625;28;20042;-23
2023/05/15 04:06:54;;;;;;;6.00;5.70;;;;;;;;;;4977584;28;20449;-27
2023/05/15 04:09:21;;;;;;;6.35;5.95;;;;;;;;;;4994734;28;20030;-23
2023/05/15 04:11:47;;;;;;;6.82;6.43;;;;;;;;;;4994579;28;20038;-26
2023/05/15 04:14:13;;;;;;;5.90;5.60;;;;;;;;;;4996031;28;20027;-25
2023/05/15 04:16:39;;;;;;;5.72;5.43;;;;;;;;;;4998169;28;20030;-25
2023/05/15 04:19:05;;;;;;;5.75;5.45;;;;;;;;;;4998033;28;20039;-25
2023/05/15 04:21:31;;;;;;;5.63;5.32;;;;;;;;;;4998442;28;20473;-23
2023/05/15 04:23:57;;;;;;;6.10;5.80;;;;;;;;;;4997917;28;20027;-21
2023/05/15 04:26:24;;;;;;;6.18;5.88;;;;;;;;;;4997888;28;20022;-25
2023/05/15 04:28:50;;;;;;;6.03;5.63;;;;;;;;;;4997722;28;20030;-25
2023/05/15 04:31:16;;;;;;;5.60;5.30;;;;;;;;;;4997562;28;20038;-25
2023/05/15 04:33:42;;;;;;;5.88;5.57;;;;;;;;;;4997680;28;20362;-24
2023/05/15 04:36:09;;;;;;;5.70;5.40;;;;;;;;;;4997927;28;20365;-26
2023/05/15 04:38:36;;;;;;;6.07;5.78;;;;;;;;;;4997853;28;20417;-23
2023/05/15 04:41:02;;;;;;;5.63;5.32;;;;;;;;;;4997961;28;20350;-20
2023/05/15 04:43:28;;;;;;;5.53;5.22;;;;;;;;;;4997684;28;20022;-24
2023/05/15 04:45:54;;;;;;;6.05;5.65;;;;;;;;;;4997351;28;20423;-24
2023/05/15 04:48:20;;;;;;;6.22;5.68;;;;;;;;;;4980312;28;20057;-23
2023/05/15 04:50:47;;;;;;;5.70;5.40;;;;;;;;;;4997684;28;20031;-24
2023/05/15 04:53:13;;;;;;;5.13;4.82;;;;;;;;;;4997446;28;20438;-24
2023/05/15 04:55:39;;;;;;;5.05;4.82;;;;;;;;;;4997448;28;20381;-23
2023/05/15 04:58:05;;;;;;;5.70;5.40;;;;;;;;;;4997412;28;20113;-26
2023/05/15 05:00:32;;;;;;;5.13;4.82;;;;;;;;;;4997284;28;20046;-23
2023/05/15 05:02:58;;;;;;;5.70;5.32;;;;;;;;;;4997516;28;20033;-25
2023/05/15 05:05:24;;;;;;;5.65;5.35;;;;;;;;;;4997053;28;20053;-23
2023/05/15 05:07:51;;;;;;;5.55;5.25;;;;;;;;;;4997196;28;20039;-21
2023/05/15 05:10:17;;;;;;;6.50;5.72;;;;;;;;;;4997124;28;20030;-25
2023/05/15 05:12:43;;;;;;;4.80;4.60;;;;;;;;;;4997338;28;20323;-25
2023/05/15 05:15:09;;;;;;;5.45;5.15;;;;;;;;;;4997332;28;20033;-26
2023/05/15 05:17:35;;;;;;;5.28;4.82;;;;;;;;;;4997137;28;20043;-23
2023/05/15 05:20:01;;;;;;;6.82;5.25;;;;;;;;;;4980625;28;20438;-23
2023/05/15 05:22:28;;;;;;;5.53;5.22;;;;;;;;;;4996840;28;20030;-23
2023/05/15 05:24:54;;;;;;;5.38;4.97;;;;;;;;;;4996792;28;20053;-25
2023/05/15 05:27:20;;;;;;;5.68;5.28;;;;;;;;;;4996501;28;20022;-21
2023/05/15 05:29:46;;;;;;;5.28;4.88;;;;;;;;;;4996742;28;20101;-25
2023/05/15 05:32:13;;;;;;;5.05;4.75;;;;;;;;;;4996647;28;20033;-22
2023/05/15 05:34:39;;;;;;;5.03;4.70;;;;;;;;;;4996897;28;20114;-25
2023/05/15 05:37:05;;;;;;;5.38;5.07;;;;;;;;;;4996869;28;20365;-24
2023/05/15 05:39:31;;;;;;;4.80;4.60;;;;;;;;;;4996454;28;20065;-23
2023/05/15 05:41:58;;;;;;;7.47;6.88;;;;;;;;;;4996562;28;20026;-25
2023/05/15 05:44:24;;;;;;;5.15;4.82;;;;;;;;;;4996531;28;20093;-25
2023/05/15 05:46:51;;;;;;;6.30;5.93;;;;;;;;;;4996684;28;20030;-22
2023/05/15 05:49:17;;;;;;;5.13;4.82;;;;;;;;;;4979412;28;20156;-24
2023/05/15 05:51:45;;;;;;;6.10;5.53;;;;;;;;;;4979182;28;20084;-25
2023/05/15 05:54:13;;;;;;;6.07;5.60;;;;;;;;;;4996472;28;20057;-26
2023/05/15 05:56:40;;;;;;;6.07;5.45;;;;;;;;;;4979003;28;20092;-26
2023/05/15 05:59:06;;;;;;;5.38;5.03;;;;;;;;;;4996138;28;20026;-26
2023/05/15 06:04:08;;;;;;;7.57;5.53;;;;;;;;;;4017391;26;20115;-27
2023/05/15 06:06:34;;;;;;;6.03;5.53;;;;;;;;;;4995955;28;20022;-29
2023/05/15 06:09:01;;;;;;;5.38;5.03;;;;;;;;;;4978973;28;20069;-25
2023/05/15 06:11:27;;;;;;;6.15;5.75;;;;;;;;;;4996010;28;20034;-29
2023/05/15 06:13:53;;;;;;;5.65;5.25;;;;;;;;;;4995997;28;20421;-27
2023/05/15 06:16:19;;;;;;;5.10;4.80;;;;;;;;;;4995977;28;20441;-25
2023/05/15 06:18:45;;;;;;;5.45;5.13;;;;;;;;;;4995798;28;20038;-25
2023/05/15 06:21:11;;;;;;;6.35;5.70;;;;;;;;;;4995768;28;20034;-28
2023/05/15 06:23:38;;;;;;;6.00;5.60;;;;;;;;;;4995903;28;20022;-25
2023/05/15 06:26:04;;;;;;;5.53;5.13;;;;;;;;;;4995738;28;20100;-26
2023/05/15 06:28:30;;;;;;;6.35;5.95;;;;;;;;;;4996848;28;20421;-30
2023/05/15 06:30:56;;;;;;;6.43;6.03;;;;;;;;;;4995912;28;20080;-28
2023/05/15 06:33:22;;;;;;;5.22;4.93;;;;;;;;;;4995762;28;20088;-27
2023/05/15 06:35:49;;;;;;;5.80;5.32;;;;;;;;;;4995654;28;20038;-27
2023/05/15 06:38:15;;;;;;;5.78;5.38;;;;;;;;;;4995821;28;20345;-26
2023/05/15 06:40:41;;;;;;;5.90;5.43;;;;;;;;;;4995741;28;20033;-25
2023/05/15 06:43:08;;;;;;;6.32;5.72;;;;;;;;;;4995414;28;20023;-29
2023/05/15 06:45:34;;;;;;;6.00;5.50;;;;;;;;;;4995673;28;20472;-25
2023/05/15 06:48:00;;;;;;;5.90;5.43;;;;;;;;;;4995406;28;20030;-28
2023/05/15 06:50:26;;;;;;;5.32;5.03;;;;;;;;;;4995671;28;20049;-26
2023/05/15 06:52:53;;;;;;;5.82;5.47;;;;;;;;;;4995196;28;20109;-26
2023/05/15 06:55:19;;;;;;;6.03;5.53;;;;;;;;;;4995647;28;20031;-27
2023/05/15 06:57:45;;;;;;;6.40;5.90;;;;;;;;;;4995753;28;20460;-25
2023/05/15 07:00:13;;;;;;;5.57;5.25;;;;;;;;;;4995218;28;20022;-25
2023/05/15 07:02:39;;;;;;;8.65;6.03;;;;;;;;;;4995263;28;20385;-26
2023/05/15 07:05:05;;;;;;;6.95;6.07;;;;;;;;;;4995064;28;20380;-24
2023/05/15 07:07:31;;;;;;;5.95;5.45;;;;;;;;;;4995331;28;20038;-23
2023/05/15 07:09:58;;;;;;;6.32;5.78;;;;;;;;;;4995161;28;20037;-26
2023/05/15 07:12:24;;;;;;;6.15;5.53;;;;;;;;;;4995201;28;20036;-28
2023/05/15 07:14:50;;;;;;;6.03;5.40;;;;;;;;;;4977844;28;20034;-26
2023/05/15 07:17:18;;;;;;;6.15;5.65;;;;;;;;;;4995076;28;20419;-26
2023/05/15 07:19:44;;;;;;;7.40;6.70;;;;;;;;;;4995499;28;20027;-28
2023/05/15 07:22:10;;;;;;;6.05;5.57;;;;;;;;;;4995056;28;20037;-24
2023/05/15 07:24:37;;;;;;;6.47;6.00;;;;;;;;;;4995170;28;20022;-26
2023/05/15 07:27:03;;;;;;;6.53;5.78;;;;;;;;;;4995127;28;20445;-28
2023/05/15 07:29:29;;;;;;;9.10;6.95;;;;;;;;;;4994776;28;20030;-24
2023/05/15 07:31:56;;;;;;;15.23;5.50;;;;;;;;;;4994931;28;20061;-26
2023/05/15 07:34:22;;;;;;;6.38;5.90;;;;;;;;;;4995071;28;20038;-25
2023/05/15 07:36:48;;;;;;;7.70;5.75;;;;;;;;;;4994996;28;20318;-25
2023/05/15 07:39:14;;;;;;;6.38;5.78;;;;;;;;;;4977661;28;20037;-26
2023/05/15 07:41:41;;;;;;;11.55;7.05;;;;;;;;;;4994808;28;20025;-25
2023/05/15 07:44:07;;;;;;;10.63;5.93;;;;;;;;;;4994264;28;20109;-27
2023/05/15 07:46:33;;;;;;;8.75;6.32;;;;;;;;;;4994816;28;20096;-28
2023/05/15 07:48:59;;;;;;;6.57;6.03;;;;;;;;;;4996344;28;20361;-26
2023/05/15 07:51:25;;;;;;;9.95;7.25;;;;;;;;;;4998627;28;20027;-27
2023/05/15 07:53:52;;;;;;;9.20;5.80;;;;;;;;;;4981474;28;20121;-27
2023/05/15 07:56:18;;;;;;;11.25;6.60;;;;;;;;;;4998715;28;20027;-26
2023/05/15 07:58:44;;;;;;;7.25;5.65;;;;;;;;;;4998584;28;20031;-24
2023/05/15 08:01:10;;;;;;;8.27;6.25;;;;;;;;;;4998666;28;20396;-26
2023/05/15 08:03:36;;;;;;;8.75;6.43;;;;;;;;;;4978196;28;20047;-28
2023/05/15 08:06:02;;;;;;;6.55;5.95;;;;;;;;;;4978759;28;20089;-27
2023/05/15 08:08:28;;;;;;;6.80;6.10;;;;;;;;;;4978912;28;20030;-28
2023/05/15 08:10:55;;;;;;;7.05;6.57;;;;;;;;;;4978794;28;20046;-27
2023/05/15 08:13:21;;;;;;;6.88;6.38;;;;;;;;;;4978986;28;20469;-28
2023/05/15 08:15:47;;;;;;;10.88;6.13;;;;;;;;;;4977965;28;20134;-24
2023/05/15 08:18:13;;;;;;;6.38;5.90;;;;;;;;;;4979009;28;20378;-25
2023/05/15 08:20:39;;;;;;;6.30;5.78;;;;;;;;;;4978975;28;20061;-26
2023/05/15 08:23:05;;;;;;;6.68;5.90;;;;;;;;;;4978575;28;20027;-26
2023/05/15 08:25:31;;;;;;;11.85;6.40;;;;;;;;;;4978551;28;20101;-28
2023/05/15 08:27:58;;;;;;;6.55;5.75;;;;;;;;;;4978630;28;20035;-27
2023/05/15 08:30:24;;;;;;;6.03;5.30;;;;;;;;;;4978600;28;20090;-27
2023/05/15 08:32:50;;;;;;;6.38;5.93;;;;;;;;;;4977516;28;20031;-25
2023/05/15 08:35:16;;;;;;;9.77;6.22;;;;;;;;;;4978682;28;20386;-24
2023/05/15 08:37:42;;;;;;;7.95;6.13;;;;;;;;;;4977161;28;20101;-25
2023/05/15 08:40:09;;;;;;;16.25;6.75;;;;;;;;;;4977363;28;20027;-25
2023/05/15 08:42:41;;;;;;;25.02;7.28;;;;;;;;;;4978435;28;20365;-26
2023/05/15 08:45:08;;;;;;;6.05;5.53;;;;;;;;;;4978160;28;20046;-27
2023/05/15 08:47:38;;;;;;;8.73;6.03;;;;;;;;;;4978083;28;20465;-25
2023/05/15 08:50:12;;;;;;;6.88;6.25;;;;;;;;;;4978014;28;20026;-28
2023/05/15 08:52:40;;;;;;;7.90;6.40;;;;;;;;;;4977919;28;20101;-26
2023/05/15 08:55:07;;;;;;;11.77;6.80;;;;;;;;;;4977177;28;20044;-24
2023/05/15 08:57:34;;;;;;;12.80;6.75;;;;;;;;;;4978059;28;20096;-27
2023/05/15 09:00:00;;;;;;;9.15;6.88;;;;;;;;;;4977277;28;20038;-25
2023/05/15 09:02:27;;;;;;;10.02;6.20;;;;;;;;;;4976589;28;20041;-23
2023/05/15 09:04:53;;;;;;;13.73;6.60;;;;;;;;;;4995076;28;20050;-26
2023/05/15 09:07:19;;;;;;;12.93;7.15;;;;;;;;;;4997286;28;20030;-24
2023/05/15 09:09:46;;;;;;;10.25;6.38;;;;;;;;;;4997438;28;20453;-26
2023/05/15 09:12:14;;;;;;;16.67;6.88;;;;;;;;;;4997041;28;20445;-28
2023/05/15 09:14:41;;;;;;;14.43;7.78;;;;;;;;;;4997185;28;20368;-26
2023/05/15 09:17:09;;;;;;;7.22;6.50;;;;;;;;;;4997066;28;20113;-25
2023/05/15 09:19:38;;;;;;;10.80;6.35;;;;;;;;;;4996935;28;20054;-25
2023/05/15 09:22:21;;;;;;;20.13;6.85;;;;;;;;;;4996928;28;20050;-28
2023/05/15 09:24:50;;;;;;;7.78;7.18;;;;;;;;;;4997137;28;20054;-24
2023/05/15 09:27:16;;;;;;;8.15;6.25;;;;;;;;;;4979594;28;20018;-25
2023/05/15 09:29:43;;;;;;;7.78;6.20;;;;;;;;;;4979613;28;20026;-24
2023/05/15 09:32:10;;;;;;;12.23;8.30;;;;;;;;;;4996597;28;20031;-33
2023/05/15 09:34:38;;;;;;;11.05;6.78;;;;;;;;;;4996702;28;20465;-27
2023/05/15 09:37:05;;;;;;;7.30;6.40;;;;;;;;;;4979407;28;20041;-28
2023/05/15 09:39:32;;;;;;;11.98;7.03;;;;;;;;;;4996534;28;20034;-26
2023/05/15 09:42:08;;;;;;;12.73;6.43;;;;;;;;;;4996724;28;20053;-27
2023/05/15 09:44:35;;;;;;;7.47;6.78;;;;;;;;;;4996606;28;20022;-27
2023/05/15 09:47:01;;;;;;;10.77;7.30;;;;;;;;;;4996714;28;20050;-24
2023/05/15 09:49:28;;;;;;;8.82;6.28;;;;;;;;;;4996406;28;20038;-25
2023/05/15 09:51:58;;;;;;;6.88;6.30;;;;;;;;;;4996424;28;20076;-23
2023/05/15 09:54:26;;;;;;;10.05;7.18;;;;;;;;;;4979125;28;20113;-25
2023/05/15 09:56:52;;;;;;;14.80;7.22;;;;;;;;;;4996925;28;20038;-25
2023/05/15 09:59:22;;;;;;;7.72;7.03;;;;;;;;;;4996405;28;20073;-25
2023/05/15 10:01:50;;;;;;;12.73;7.18;;;;;;;;;;4996329;28;20022;-26
2023/05/15 10:04:16;;;;;;;13.65;7.15;;;;;;;;;;4978789;28;20400;-27
2023/05/15 10:06:45;;;;;;;21.67;7.13;;;;;;;;;;4996243;28;20022;-27
2023/05/15 10:09:12;;;;;;;11.07;7.25;;;;;;;;;;4996639;28;20104;-24
2023/05/15 10:11:42;;;;;;;13.38;7.55;;;;;;;;;;4996229;28;20030;-25
2023/05/15 10:14:09;;;;;;;14.18;7.63;;;;;;;;;;4995830;28;20334;-26
2023/05/15 10:16:37;;;;;;;12.35;8.07;;;;;;;;;;4995722;28;20057;-24
2023/05/15 10:19:04;;;;;;;15.30;8.82;;;;;;;;;;4995907;28;20026;-25
2023/05/15 10:21:34;;;;;;;16.20;7.95;;;;;;;;;;4996069;28;20038;-25
2023/05/15 10:24:00;;;;;;;8.90;7.40;;;;;;;;;;4995678;28;20023;-26
2023/05/15 10:26:32;;;;;;;8.68;7.22;;;;;;;;;;4995711;28;20254;-29
2023/05/15 10:29:00;;;;;;;18.63;7.45;;;;;;;;;;4995652;28;20106;-28
2023/05/15 10:31:28;;;;;;;18.42;6.93;;;;;;;;;;4996216;28;20164;-29
2023/05/15 10:33:55;;;;;;;16.30;7.10;;;;;;;;;;4996122;28;20026;-28
2023/05/15 10:36:21;;;;;;;19.95;7.28;;;;;;;;;;4996171;28;20182;-23
2023/05/15 10:38:49;;;;;;;15.43;8.23;;;;;;;;;;4995528;28;20377;-24
2023/05/15 10:41:17;;;;;;;15.52;7.65;;;;;;;;;;4995558;28;20120;-23
2023/05/15 10:43:43;;;;;;;12.98;7.47;;;;;;;;;;4995457;28;20030;-28
2023/05/15 10:46:10;;;;;;;9.50;6.82;;;;;;;;;;4995399;28;20453;-27
2023/05/15 10:48:37;;;;;;;10.27;7.85;;;;;;;;;;4995414;28;20034;-24
2023/05/15 10:51:03;;;;;;;15.13;8.20;;;;;;;;;;4995696;28;20038;-26
2023/05/15 10:53:29;;;;;;;8.85;7.43;;;;;;;;;;4978087;28;20400;-27
2023/05/15 10:55:55;;;;;;;10.77;7.70;;;;;;;;;;4995531;28;20023;-25
2023/05/15 10:58:25;;;;;;;11.02;7.47;;;;;;;;;;4995076;28;20042;-25
2023/05/15 11:00:51;;;;;;;7.72;6.70;;;;;;;;;;4995012;28;20450;-28
2023/05/15 11:03:35;;;;;;;13.90;7.80;;;;;;;;;;4994720;28;20384;-26
2023/05/15 11:06:11;;;;;;;12.60;7.30;;;;;;;;;;4995328;28;20092;-25
2023/05/15 11:08:44;;;;;;;9.25;7.85;;;;;;;;;;4994918;28;20030;-28
2023/05/15 11:11:31;;;;;;;9.38;7.32;;;;;;;;;;4994956;28;20469;-28
2023/05/15 11:14:09;;;;;;;8.13;7.45;;;;;;;;;;4981434;28;20042;-26
2023/05/15 11:16:53;;;;;;;17.27;7.25;;;;;;;;;;4995050;28;20049;-25
2023/05/15 11:19:23;;;;;;;10.10;7.85;;;;;;;;;;4994796;28;20026;-27
2023/05/15 11:21:58;;;;;;;8.45;7.00;;;;;;;;;;4994936;28;20525;-25
2023/05/15 11:24:45;;;;;;;10.52;7.05;;;;;;;;;;4994623;28;20030;-28
2023/05/15 11:27:12;;;;;;;9.13;7.25;;;;;;;;;;4981429;28;20413;-28
2023/05/15 11:29:58;;;;;;;9.13;7.68;;;;;;;;;;4994987;28;20057;-28
2023/05/15 11:32:43;;;;;;;9.00;7.35;;;;;;;;;;4995002;28;20046;-26
2023/05/15 11:35:10;;;;;;;8.95;7.60;;;;;;;;;;4977799;28;20050;-25
2023/05/15 11:37:47;;;;;;;17.23;7.25;;;;;;;;;;4994817;28;20031;-25
2023/05/15 11:40:14;;;;;;;14.48;7.68;;;;;;;;;;4995099;28;20452;-24
2023/05/15 11:42:41;;;;;;;10.10;8.95;;;;;;;;;;4994786;28;20523;-26
2023/05/15 11:45:09;;;;;;;13.70;7.85;;;;;;;;;;4994894;28;20038;-24
2023/05/15 11:47:35;;;;;;;11.55;7.75;;;;;;;;;;4978018;28;20068;-27
2023/05/15 11:50:03;;;;;;;11.88;7.10;;;;;;;;;;4994690;28;20037;-26
2023/05/15 11:52:30;;;;;;;18.45;8.52;;;;;;;;;;4994688;28;20022;-27
2023/05/15 11:54:56;;;;;;;8.65;7.63;;;;;;;;;;4977559;28;20067;-26
2023/05/15 11:57:23;;;;;;;19.77;8.45;;;;;;;;;;4994580;28;20093;-26
2023/05/15 11:59:53;;;;;;;21.13;8.68;;;;;;;;;;4994476;28;20053;-25
2023/05/15 12:02:19;;;;;;;13.35;8.13;;;;;;;;;;4994356;28;20046;-25
2023/05/15 12:04:49;;;;;;;19.08;10.63;;;;;;;;;;4994395;28;20377;-26
2023/05/15 12:07:15;;;;;;;20.67;8.60;;;;;;;;;;4994472;28;20014;-24
2023/05/15 12:09:41;;;;;;;25.08;8.40;;;;;;;;;;4994543;28;20138;-27
2023/05/15 12:12:12;;;;;;;18.48;8.50;;;;;;;;;;4977238;28;20038;-24
2023/05/15 12:14:38;;;;;;;;;;;;;;;;;;4995161;28;20335;-28
2023/05/15 12:17:05;;;;;;;10.80;8.27;;;;;;;;;;4977270;28;19917;-27
2023/05/15 12:19:32;;;;;;;12.80;8.75;;;;;;;;;;4994385;28;20038;-29
2023/05/15 12:21:58;;;;;;;11.43;8.35;;;;;;;;;;4994312;28;20037;-26
2023/05/15 12:24:25;;;;;;;12.25;8.10;;;;;;;;;;4994698;28;20492;-26
2023/05/15 12:26:51;;;;;;;17.83;8.02;;;;;;;;;;4994404;28;20034;-28
2023/05/15 12:29:18;;;;;;;11.60;8.25;;;;;;;;;;4977236;28;20041;-25
2023/05/15 12:31:44;;;;;;;14.65;8.32;;;;;;;;;;4994453;28;20526;-27
2023/05/15 12:34:10;;;;;;;13.77;7.95;;;;;;;;;;4994773;28;20460;-28
2023/05/15 12:36:37;;;;;;;18.25;7.72;;;;;;;;;;4998184;28;20026;-28
2023/05/15 12:39:06;;;;;;;12.95;7.30;;;;;;;;;;4981187;28;20022;-27
2023/05/15 12:41:32;;;;;;;10.05;8.32;;;;;;;;;;4998012;28;20461;-25
2023/05/15 12:43:59;;;;;;;11.13;8.23;;;;;;;;;;4997679;28;20385;-28
2023/05/15 12:46:29;;;;;;;11.13;7.82;;;;;;;;;;4997810;28;20034;-25
2023/05/15 12:48:57;;;;;;;22.35;8.30;;;;;;;;;;4997886;28;20037;-26
2023/05/15 12:51:23;;;;;;;16.23;8.65;;;;;;;;;;4997623;28;20093;-24
2023/05/15 12:53:52;;;;;;;12.23;8.45;;;;;;;;;;4997400;28;20030;-26
2023/05/15 12:56:18;;;;;;;13.00;7.90;;;;;;;;;;4997669;28;20032;-28
2023/05/15 12:58:44;;;;;;;13.82;9.48;;;;;;;;;;4997195;28;20053;-28
2023/05/15 13:01:10;;;;;;;9.30;7.90;;;;;;;;;;4997235;28;20041;-27
2023/05/15 13:03:36;;;;;;;15.73;7.40;;;;;;;;;;4996995;28;20382;-28
2023/05/15 13:06:03;;;;;;;12.55;8.73;;;;;;;;;;4997512;28;20019;-27
2023/05/15 13:08:29;;;;;;;11.45;7.43;;;;;;;;;;4980188;28;20109;-24
2023/05/15 13:10:56;;;;;;;10.05;8.07;;;;;;;;;;4980220;28;20027;-24
2023/05/15 13:13:22;;;;;;;11.38;8.93;;;;;;;;;;4997175;28;20049;-25
2023/05/15 13:15:49;;;;;;;16.67;8.20;;;;;;;;;;4997358;28;20033;-24
2023/05/15 13:18:16;;;;;;;19.27;8.60;;;;;;;;;;4997219;28;20026;-26
2023/05/15 13:20:52;;;;;;;22.98;9.75;;;;;;;;;;4996895;28;20022;-24
2023/05/15 13:23:19;;;;;;;16.80;7.95;;;;;;;;;;4979707;28;20362;-27
2023/05/15 13:25:45;;;;;;;15.50;8.63;;;;;;;;;;4997021;28;20097;-26
2023/05/15 13:28:12;;;;;;;10.25;8.70;;;;;;;;;;4997084;28;20413;-25
2023/05/15 13:30:41;;;;;;;8.88;8.07;;;;;;;;;;4996897;28;20022;-28
2023/05/15 13:33:11;;;;;;;14.77;7.78;;;;;;;;;;4996898;28;20032;-27
2023/05/15 13:35:38;;;;;;;14.65;8.38;;;;;;;;;;4997243;28;20041;-24
2023/05/15 13:38:05;;;;;;;14.65;8.45;;;;;;;;;;4996868;28;20432;-25
2023/05/15 13:40:37;;;;;;;20.50;8.80;;;;;;;;;;4996782;28;20065;-26
2023/05/15 13:43:05;;;;;;;25.20;9.77;;;;;;;;;;4997011;28;20140;-26
2023/05/15 13:45:31;;;;;;;17.15;8.30;;;;;;;;;;4996964;28;20090;-24
2023/05/15 13:47:57;;;;;;;14.95;8.30;;;;;;;;;;4996283;28;20031;-26
2023/05/15 13:50:23;;;;;;;13.70;8.70;;;;;;;;;;4979703;28;20034;-25
2023/05/15 13:52:49;;;;;;;9.93;8.50;;;;;;;;;;4996551;28;20442;-28
2023/05/15 13:55:16;;;;;;;12.77;9.18;;;;;;;;;;4996801;28;20027;-28
2023/05/15 13:57:44;;;;;;;8.90;8.10;;;;;;;;;;4996409;28;20113;-26
2023/05/15 14:00:13;;;;;;;12.48;9.82;;;;;;;;;;4996485;28;20054;-25
2023/05/15 14:02:42;;;;;;;13.38;8.88;;;;;;;;;;4979650;28;20132;-29
2023/05/15 14:05:12;;;;;;;13.43;9.32;;;;;;;;;;4996201;28;20038;-27
2023/05/15 14:07:39;;;;;;;9.88;8.02;;;;;;;;;;4996362;28;20121;-25
2023/05/15 14:10:05;;;;;;;9.38;8.57;;;;;;;;;;4996239;28;20041;-25
2023/05/15 14:12:31;;;;;;;12.77;8.77;;;;;;;;;;4996424;28;20048;-24
2023/05/15 14:14:58;;;;;;;14.38;9.32;;;;;;;;;;4996215;28;20093;-24
2023/05/15 14:17:24;;;;;;;14.32;9.02;;;;;;;;;;4996371;28;20034;-26
2023/05/15 14:19:50;;;;;;;11.40;7.07;;;;;;;;;;4978888;28;20026;-28
2023/05/15 14:22:16;;;;;;;18.48;9.13;;;;;;;;;;4996055;28;20025;-29
2023/05/15 14:24:43;;;;;;;12.65;9.35;;;;;;;;;;4995956;28;20026;-27
2023/05/15 14:27:09;;;;;;;9.63;8.48;;;;;;;;;;4995974;28;20039;-27
2023/05/15 14:29:35;;;;;;;11.98;8.75;;;;;;;;;;4996155;28;20027;-27
2023/05/15 14:32:01;;;;;;;9.52;8.63;;;;;;;;;;4995849;28;20026;-26
2023/05/15 14:34:28;;;;;;;8.85;8.25;;;;;;;;;;4996376;28;20468;-24
2023/05/15 14:36:55;;;;;;;16.38;9.82;;;;;;;;;;4995782;28;20041;-25
2023/05/15 14:39:21;;;;;;;13.27;9.35;;;;;;;;;;4995665;28;20040;-29
2023/05/15 14:41:48;;;;;;;13.40;8.85;;;;;;;;;;4995608;28;20057;-25